logo
Rechercher aéroport 
image banner adimage banner adimage banner ad
image banner ad

O85 - Benton Field

Situé à Redding, United States

ICAO - O85, IATA - BZF

Données fournies par Airmate  

Information générale

Coordonnées: N40°34'25" W122°24'26"
Élévation : 723 feet MSL.
Variation magnétique : 17° East
Voir autres Aéroports à California

Données opérationnelles

Special qualification required
Heure actuelle UTC:
Heure actuelle locale:
Météo à : KRDD - Redding Muni ( 12 km )
METAR: KRDD 281253Z AUTO 00000KT 10SM CLR 15/08 A2994 RMK AO2 SLP132 T01500083
TAF: KRDD 281122Z 2812/2912 VRB05KT P6SM SCT250 FM282100 19008KT P6SM FEW250 FM290300 VRB04KT P6SM SCT250
Voir NOTAMs / SUP AIP / TFR affectant cet aéroport [VIEW]
Fréquences de communication: [VIEW]

Pistes:

Identifiant RWYQFULongueur (ft)Largeur (ft)SurfaceLDA (ft)
15242075ASPH
33242075ASPH

Coordonnées de l'aéroport

Adresse: Redding United States

Autres services d'aviation

Écoles de pilotage

Benton Air Center

Benton Air Center

Vue satellite de O85